createdAt,value
2023-03-02T00:02:13.249Z,99.90
2023-03-02T00:04:49.232Z,99.90
2023-03-02T00:07:21.900Z,99.90
2023-03-02T00:09:48.786Z,99.90
2023-03-02T00:12:16.024Z,99.90
2023-03-02T00:14:43.075Z,99.90
2023-03-02T00:17:10.565Z,99.90
2023-03-02T00:19:38.960Z,99.90
2023-03-02T00:22:06.028Z,99.90
2023-03-02T00:24:33.143Z,99.90
2023-03-02T00:27:00.131Z,99.90
2023-03-02T00:29:27.171Z,99.90
2023-03-02T00:31:54.399Z,99.90
2023-03-02T00:34:21.561Z,99.90
2023-03-02T00:36:49.471Z,99.90
2023-03-02T00:39:20.192Z,99.90
2023-03-02T00:41:48.392Z,99.90
2023-03-02T00:44:17.564Z,99.90
2023-03-02T00:46:45.327Z,99.90
2023-03-02T00:49:12.994Z,99.90
2023-03-02T00:51:52.643Z,99.90
2023-03-02T00:54:20.040Z,99.90
2023-03-02T00:56:46.923Z,99.90
2023-03-02T00:59:29.264Z,99.90
2023-03-02T01:02:00.851Z,99.90
2023-03-02T01:04:31.700Z,99.90
2023-03-02T01:07:01.049Z,99.90
2023-03-02T01:09:28.652Z,99.90
2023-03-02T01:11:55.682Z,99.90
2023-03-02T01:14:23.689Z,99.90
2023-03-02T01:16:51.021Z,99.90
2023-03-02T01:19:18.156Z,99.90
2023-03-02T01:21:45.144Z,99.90
2023-03-02T01:24:12.416Z,99.90
2023-03-02T01:26:39.332Z,99.90
2023-03-02T01:29:06.204Z,99.90
2023-03-02T01:31:33.118Z,99.90
2023-03-02T01:34:00.153Z,99.90
2023-03-02T01:36:27.118Z,99.90
2023-03-02T01:38:54.262Z,99.90
2023-03-02T01:41:21.400Z,99.90
2023-03-02T01:43:48.316Z,99.90
2023-03-02T01:46:15.297Z,99.90
2023-03-02T01:49:09.693Z,99.90
2023-03-02T01:51:43.986Z,99.90
2023-03-02T01:54:17.141Z,99.90
2023-03-02T01:56:45.659Z,99.90
2023-03-02T01:59:18.983Z,99.90
2023-03-02T02:01:51.740Z,99.90
2023-03-02T02:04:19.674Z,99.90
2023-03-02T02:07:02.248Z,99.90
2023-03-02T02:09:34.909Z,99.90
2023-03-02T02:12:01.893Z,99.90
2023-03-02T02:14:29.208Z,99.90
2023-03-02T02:16:56.665Z,99.90
2023-03-02T02:19:55.104Z,99.90
2023-03-02T02:23:00.728Z,99.90
2023-03-02T02:25:39.855Z,99.90
2023-03-02T02:28:16.796Z,99.90
2023-03-02T02:30:45.476Z,99.90
2023-03-02T02:33:20.678Z,99.90
2023-03-02T02:35:49.342Z,99.90
2023-03-02T02:38:19.944Z,99.90
2023-03-02T02:40:55.732Z,99.90
2023-03-02T02:43:23.672Z,99.90
2023-03-02T02:45:55.741Z,99.90
2023-03-02T02:48:27.061Z,99.90
2023-03-02T02:51:00.554Z,99.90
2023-03-02T02:53:43.145Z,99.90
2023-03-02T02:56:11.616Z,99.90
2023-03-02T02:59:14.162Z,99.90
2023-03-02T03:01:41.150Z,99.90
2023-03-02T03:04:14.095Z,99.90
2023-03-02T03:06:58.419Z,99.90
2023-03-02T03:09:26.892Z,99.90
2023-03-02T03:12:03.963Z,99.90
2023-03-02T03:14:41.487Z,99.90
2023-03-02T03:17:12.198Z,99.90
2023-03-02T03:19:42.412Z,99.90
2023-03-02T03:22:12.824Z,99.90
2023-03-02T03:24:42.400Z,99.90
2023-03-02T03:27:13.032Z,99.90
2023-03-02T03:29:45.425Z,99.90
2023-03-02T03:32:12.501Z,99.90
2023-03-02T03:34:40.995Z,99.90
2023-03-02T03:37:12.919Z,99.90
2023-03-02T03:39:40.639Z,99.90
2023-03-02T03:42:07.667Z,99.90
2023-03-02T03:44:34.915Z,99.90
2023-03-02T03:47:01.978Z,99.90
2023-03-02T03:49:29.247Z,99.90
2023-03-02T03:51:56.395Z,99.90
2023-03-02T03:54:23.398Z,99.90
2023-03-02T03:56:50.785Z,99.90
2023-03-02T03:59:23.157Z,99.90
2023-03-02T04:01:54.570Z,99.90
2023-03-02T04:04:29.584Z,99.90
2023-03-02T04:06:57.415Z,99.90
2023-03-02T04:09:24.938Z,99.90
2023-03-02T04:11:57.384Z,99.90
2023-03-02T04:14:25.345Z,99.90
2023-03-02T04:16:52.747Z,99.90
2023-03-02T04:19:19.855Z,99.90
2023-03-02T04:21:51.237Z,99.90
2023-03-02T04:24:20.935Z,99.90
2023-03-02T04:26:49.153Z,99.90
2023-03-02T04:29:17.650Z,99.90
2023-03-02T04:31:44.588Z,99.90
2023-03-02T04:34:11.459Z,99.90
2023-03-02T04:36:39.937Z,99.90
2023-03-02T04:39:08.065Z,99.90
2023-03-02T04:41:36.032Z,99.90
2023-03-02T04:44:03.219Z,99.90
2023-03-02T04:46:30.376Z,99.90
2023-03-02T04:48:57.398Z,99.90
2023-03-02T04:51:33.054Z,99.90
2023-03-02T04:54:07.577Z,99.90
2023-03-02T04:56:35.557Z,99.90
2023-03-02T04:59:02.811Z,99.90
2023-03-02T05:01:29.730Z,99.90
2023-03-02T05:03:56.759Z,99.90
2023-03-02T05:06:27.157Z,99.90
2023-03-02T05:08:54.411Z,99.90
2023-03-02T05:11:23.855Z,99.90
2023-03-02T05:14:02.074Z,99.90
2023-03-02T05:16:32.740Z,99.90
2023-03-02T05:19:02.465Z,99.90
2023-03-02T05:21:30.466Z,99.90
2023-03-02T05:23:58.625Z,99.90
2023-03-02T05:26:25.604Z,99.90
2023-03-02T05:28:54.047Z,99.90
2023-03-02T05:31:32.235Z,99.90
2023-03-02T05:33:59.245Z,99.90
2023-03-02T05:36:26.175Z,99.90
2023-03-02T05:38:53.254Z,99.90
2023-03-02T05:41:20.206Z,99.90
2023-03-02T05:43:47.172Z,99.90
2023-03-02T05:46:14.173Z,99.90
2023-03-02T05:48:42.521Z,99.90
2023-03-02T05:51:09.792Z,99.90
2023-03-02T05:53:36.691Z,99.90
2023-03-02T05:56:04.154Z,99.90
2023-03-02T05:58:31.164Z,99.90
2023-03-02T06:00:58.453Z,99.90
2023-03-02T06:03:25.409Z,99.90
2023-03-02T06:05:52.432Z,99.90
2023-03-02T06:08:21.613Z,99.90
2023-03-02T06:10:50.696Z,99.90
2023-03-02T06:13:17.785Z,99.90
2023-03-02T06:15:44.910Z,99.90
2023-03-02T06:18:12.600Z,99.90
2023-03-02T06:20:40.515Z,99.90
2023-03-02T06:23:07.559Z,99.90
2023-03-02T06:25:35.990Z,99.90
2023-03-02T06:28:03.002Z,99.90
2023-03-02T06:30:30.179Z,99.90
2023-03-02T06:32:57.134Z,99.90
2023-03-02T06:35:24.355Z,99.90
2023-03-02T06:37:51.466Z,99.90
2023-03-02T06:40:18.564Z,99.90
2023-03-02T06:42:45.536Z,99.90
2023-03-02T06:45:12.879Z,99.90
2023-03-02T06:47:40.464Z,99.90
2023-03-02T06:50:08.492Z,99.90
2023-03-02T06:52:35.727Z,99.90
2023-03-02T06:55:03.978Z,99.90
2023-03-02T06:57:34.285Z,99.90
2023-03-02T07:00:07.582Z,99.90
2023-03-02T07:02:34.586Z,99.90
2023-03-02T07:05:01.754Z,99.90
2023-03-02T07:07:28.833Z,99.90
2023-03-02T07:09:55.716Z,99.90
2023-03-02T07:12:22.658Z,99.90
2023-03-02T07:14:49.582Z,99.90
2023-03-02T07:17:16.623Z,99.90
2023-03-02T07:19:43.464Z,99.90
2023-03-02T07:22:10.496Z,99.90
2023-03-02T07:24:37.430Z,99.90
2023-03-02T07:27:04.443Z,99.90
2023-03-02T07:29:31.368Z,99.90
2023-03-02T07:32:01.473Z,99.90
2023-03-02T07:34:28.504Z,99.90
2023-03-02T07:36:55.490Z,99.90
2023-03-02T07:39:22.413Z,99.90
2023-03-02T07:41:49.399Z,99.90
2023-03-02T07:44:16.294Z,99.90
2023-03-02T07:46:43.238Z,99.90
2023-03-02T07:49:10.266Z,99.90
2023-03-02T07:51:37.316Z,99.90
2023-03-02T07:54:05.052Z,99.90
2023-03-02T07:56:31.943Z,99.90
2023-03-02T07:58:58.999Z,99.90
2023-03-02T08:01:26.217Z,99.90
2023-03-02T08:03:53.469Z,99.90
2023-03-02T08:06:20.617Z,99.90
2023-03-02T08:08:47.461Z,99.90
2023-03-02T08:11:18.052Z,99.90
2023-03-02T08:13:45.788Z,99.90
2023-03-02T08:16:15.145Z,99.90
2023-03-02T08:18:42.760Z,99.90
2023-03-02T08:21:20.336Z,99.90
2023-03-02T08:23:47.581Z,99.90
2023-03-02T08:26:17.475Z,99.90
2023-03-02T08:28:45.098Z,99.90
2023-03-02T08:31:12.989Z,99.90
2023-03-02T08:33:40.105Z,99.90
2023-03-02T08:36:12.717Z,99.90
2023-03-02T08:38:40.113Z,99.90
2023-03-02T08:41:11.920Z,99.90
2023-03-02T08:43:39.030Z,99.60
2023-03-02T08:46:06.497Z,99.30
2023-03-02T08:48:33.481Z,99.60
2023-03-02T08:51:17.177Z,99.90
2023-03-02T08:53:47.349Z,99.90
2023-03-02T08:56:36.618Z,99.40
2023-03-02T08:59:07.786Z,99.60
2023-03-02T09:01:37.730Z,98.10
2023-03-02T09:04:07.669Z,97.40
2023-03-02T09:06:38.698Z,97.20
2023-03-02T09:09:06.879Z,96.70
2023-03-02T09:11:34.412Z,96.40
2023-03-02T09:14:02.253Z,95.70
2023-03-02T09:16:29.323Z,96.30
2023-03-02T09:18:56.280Z,94.30
2023-03-02T09:21:23.377Z,93.90
2023-03-02T09:23:55.665Z,94.00
2023-03-02T09:26:23.002Z,93.90
2023-03-02T09:28:49.970Z,93.10
2023-03-02T09:31:16.947Z,93.10
2023-03-02T09:33:44.894Z,93.80
2023-03-02T09:36:20.167Z,93.60
2023-03-02T09:38:47.884Z,92.10
2023-03-02T09:41:20.809Z,90.50
2023-03-02T09:44:11.946Z,89.60
2023-03-02T09:47:01.196Z,90.20
2023-03-02T09:49:49.058Z,90.00
2023-03-02T09:52:41.359Z,88.20
2023-03-02T09:55:16.212Z,84.40
2023-03-02T09:57:43.876Z,79.00
2023-03-02T10:00:37.944Z,76.30
2023-03-02T10:03:19.905Z,73.40
2023-03-02T10:05:51.146Z,69.10
2023-03-02T10:08:23.854Z,68.30
2023-03-02T10:11:23.272Z,64.80
2023-03-02T10:14:12.888Z,62.30
2023-03-02T10:16:54.409Z,58.00
2023-03-02T10:19:42.147Z,55.10
2023-03-02T10:22:35.261Z,55.20
2023-03-02T10:25:20.021Z,56.20
2023-03-02T10:27:57.242Z,55.90
2023-03-02T10:30:38.595Z,55.00
2023-03-02T10:33:19.250Z,53.90
2023-03-02T10:35:52.676Z,51.20
2023-03-02T10:38:23.781Z,48.50
2023-03-02T10:41:00.931Z,49.60
2023-03-02T10:43:51.536Z,48.00
2023-03-02T10:46:18.717Z,47.90
2023-03-02T10:48:58.227Z,46.80
2023-03-02T10:51:35.541Z,46.20
2023-03-02T10:54:07.364Z,45.00
2023-03-02T10:56:35.155Z,45.00
2023-03-02T10:59:14.986Z,46.00
2023-03-02T11:01:42.045Z,45.50
2023-03-02T11:04:15.464Z,44.80
2023-03-02T11:06:42.399Z,45.00
2023-03-02T11:09:14.917Z,45.30
2023-03-02T11:11:55.554Z,44.60
2023-03-02T11:14:23.929Z,44.20
2023-03-02T11:16:54.717Z,43.80
2023-03-02T11:19:31.303Z,42.90
2023-03-02T11:22:33.138Z,42.30
2023-03-02T11:25:06.246Z,39.10
2023-03-02T11:27:36.858Z,40.00
2023-03-02T11:30:22.597Z,39.90
2023-03-02T11:33:17.826Z,38.30
2023-03-02T11:36:21.089Z,39.10
2023-03-02T11:38:56.840Z,37.80
2023-03-02T11:41:37.107Z,37.80
2023-03-02T11:44:18.162Z,36.90
2023-03-02T11:46:51.389Z,37.00
2023-03-02T11:49:25.181Z,36.00
2023-03-02T11:52:00.565Z,34.40
2023-03-02T11:54:43.802Z,33.80
2023-03-02T11:57:30.811Z,32.10
2023-03-02T11:59:58.561Z,32.20
2023-03-02T12:02:27.144Z,31.50
2023-03-02T12:05:20.539Z,32.50
2023-03-02T12:08:09.208Z,32.30
2023-03-02T12:10:40.025Z,33.50
2023-03-02T12:13:23.026Z,31.20
2023-03-02T12:15:53.402Z,31.90
2023-03-02T12:18:23.241Z,31.20
2023-03-02T12:21:08.051Z,29.80
2023-03-02T12:24:01.194Z,30.10
2023-03-02T12:26:34.952Z,32.40
2023-03-02T12:29:10.968Z,31.20
2023-03-02T12:31:52.966Z,29.50
2023-03-02T12:34:39.763Z,30.20
2023-03-02T12:37:17.645Z,30.70
2023-03-02T12:40:03.224Z,31.70
2023-03-02T12:43:10.727Z,30.10
2023-03-02T12:46:22.000Z,31.90
2023-03-02T12:49:09.368Z,31.50
2023-03-02T12:51:58.984Z,31.80
2023-03-02T12:54:32.243Z,31.60
2023-03-02T12:57:16.812Z,32.00
2023-03-02T12:59:51.886Z,31.60
2023-03-02T13:02:31.596Z,31.20
2023-03-02T13:05:02.890Z,31.10
2023-03-02T13:08:00.581Z,32.40
2023-03-02T13:11:03.503Z,30.40
2023-03-02T13:13:39.344Z,31.40
2023-03-02T13:16:26.640Z,31.00
2023-03-02T13:18:58.180Z,30.30
2023-03-02T13:21:35.442Z,30.80
2023-03-02T13:24:02.537Z,29.70
2023-03-02T13:26:35.768Z,29.80
2023-03-02T13:29:04.615Z,30.00
2023-03-02T13:31:32.648Z,32.90
2023-03-02T13:34:01.051Z,33.90
2023-03-02T13:36:37.506Z,35.00
2023-03-02T13:39:09.170Z,34.20
2023-03-02T13:41:37.632Z,30.50
2023-03-02T13:44:27.230Z,29.90
2023-03-02T13:46:54.501Z,30.30
2023-03-02T13:49:33.873Z,30.40
2023-03-02T13:52:28.303Z,31.50
2023-03-02T13:54:55.560Z,32.00
2023-03-02T13:57:31.679Z,33.60
2023-03-02T14:00:00.063Z,33.30
2023-03-02T14:02:30.552Z,33.50
2023-03-02T14:04:58.240Z,34.30
2023-03-02T14:07:25.379Z,34.30
2023-03-02T14:09:52.339Z,33.70
2023-03-02T14:12:30.921Z,34.50
2023-03-02T14:15:00.464Z,35.40
2023-03-02T14:17:28.211Z,34.90
2023-03-02T14:19:55.902Z,35.60
2023-03-02T14:22:25.773Z,35.50
2023-03-02T14:24:53.565Z,35.60
2023-03-02T14:27:20.661Z,36.80
2023-03-02T14:29:47.779Z,35.60
2023-03-02T14:32:15.881Z,35.10
2023-03-02T14:34:42.913Z,35.20
2023-03-02T14:37:21.246Z,35.00
2023-03-02T14:39:55.628Z,35.20
2023-03-02T14:42:23.392Z,35.50
2023-03-02T14:44:51.770Z,36.50
2023-03-02T14:47:19.600Z,35.30
2023-03-02T14:49:47.008Z,35.80
2023-03-02T14:52:30.676Z,36.00
2023-03-02T14:55:08.443Z,35.10
2023-03-02T14:57:41.106Z,36.20
2023-03-02T15:00:13.496Z,36.30
2023-03-02T15:02:40.527Z,36.50
2023-03-02T15:05:08.244Z,37.30
2023-03-02T15:07:35.134Z,36.50
2023-03-02T15:10:02.051Z,37.00
2023-03-02T15:12:29.033Z,38.30
2023-03-02T15:14:55.981Z,36.80
2023-03-02T15:17:23.062Z,37.50
2023-03-02T15:19:50.007Z,37.70
2023-03-02T15:22:17.285Z,37.50
2023-03-02T15:24:44.436Z,37.30
2023-03-02T15:27:11.457Z,38.30
2023-03-02T15:29:38.325Z,39.90
2023-03-02T15:32:05.593Z,38.80
2023-03-02T15:34:32.484Z,37.40
2023-03-02T15:36:59.567Z,36.70
2023-03-02T15:39:26.634Z,35.40
2023-03-02T15:41:54.225Z,35.80
2023-03-02T15:44:24.767Z,36.50
2023-03-02T15:46:57.662Z,34.70
2023-03-02T15:49:27.268Z,34.40
2023-03-02T15:51:58.231Z,35.20
2023-03-02T15:54:26.468Z,35.60
2023-03-02T15:56:53.665Z,37.00
2023-03-02T15:59:23.060Z,37.30
2023-03-02T16:01:50.276Z,39.80
2023-03-02T16:04:17.638Z,42.00
2023-03-02T16:06:44.853Z,42.60
2023-03-02T16:09:12.067Z,42.30
2023-03-02T16:11:39.002Z,43.50
2023-03-02T16:14:05.896Z,44.30
2023-03-02T16:16:32.957Z,44.00
2023-03-02T16:19:00.291Z,45.40
2023-03-02T16:21:28.714Z,46.30
2023-03-02T16:24:03.081Z,45.10
2023-03-02T16:26:34.698Z,47.20
2023-03-02T16:29:02.688Z,47.90
2023-03-02T16:31:32.282Z,47.70
2023-03-02T16:34:06.935Z,48.20
2023-03-02T16:36:36.633Z,48.60
2023-03-02T16:39:06.185Z,49.90
2023-03-02T16:41:33.963Z,49.90
2023-03-02T16:44:01.520Z,50.30
2023-03-02T16:46:36.287Z,50.50
2023-03-02T16:49:04.749Z,50.90
2023-03-02T16:51:32.527Z,52.40
2023-03-02T16:53:59.548Z,52.20
2023-03-02T16:56:26.611Z,53.70
2023-03-02T16:58:54.866Z,53.20
2023-03-02T17:01:23.633Z,54.80
2023-03-02T17:03:51.365Z,55.10
2023-03-02T17:06:22.322Z,55.60
2023-03-02T17:08:50.830Z,56.20
2023-03-02T17:11:19.035Z,57.20
2023-03-02T17:13:45.989Z,56.40
2023-03-02T17:16:13.714Z,56.40
2023-03-02T17:18:41.086Z,57.50
2023-03-02T17:21:08.528Z,58.40
2023-03-02T17:23:36.912Z,57.00
2023-03-02T17:26:04.651Z,57.30
2023-03-02T17:28:31.650Z,57.80
2023-03-02T17:31:00.504Z,59.00
2023-03-02T17:33:29.513Z,59.90
2023-03-02T17:35:56.527Z,59.90
2023-03-02T17:38:23.597Z,59.00
2023-03-02T17:40:50.558Z,59.00
2023-03-02T17:43:17.545Z,62.10
2023-03-02T17:45:44.589Z,62.80
2023-03-02T17:48:11.558Z,61.30
2023-03-02T17:50:38.693Z,61.60
2023-03-02T17:53:05.653Z,62.20
2023-03-02T17:55:32.590Z,62.70
2023-03-02T17:57:59.526Z,64.00
2023-03-02T18:00:26.558Z,65.00
2023-03-02T18:02:53.985Z,66.00
2023-03-02T18:05:22.149Z,66.10
2023-03-02T18:07:49.418Z,68.60
2023-03-02T18:10:16.598Z,67.80
2023-03-02T18:12:43.582Z,69.00
2023-03-02T18:15:11.868Z,71.70
2023-03-02T18:17:39.042Z,70.80
2023-03-02T18:20:06.617Z,71.60
2023-03-02T18:22:33.731Z,72.20
2023-03-02T18:25:00.761Z,73.30
2023-03-02T18:27:27.868Z,74.30
2023-03-02T18:29:54.778Z,78.40
2023-03-02T18:32:21.823Z,75.10
2023-03-02T18:34:48.829Z,75.80
2023-03-02T18:37:15.836Z,76.50
2023-03-02T18:39:43.347Z,77.30
2023-03-02T18:42:12.560Z,79.40
2023-03-02T18:44:39.887Z,78.70
2023-03-02T18:47:07.560Z,79.70
2023-03-02T18:49:34.731Z,80.20
2023-03-02T18:52:05.790Z,80.10
2023-03-02T18:54:33.079Z,83.10
2023-03-02T18:57:01.548Z,81.00
2023-03-02T18:59:29.259Z,80.90
2023-03-02T19:01:57.360Z,81.60
2023-03-02T19:04:26.475Z,84.60
2023-03-02T19:06:56.146Z,83.00
2023-03-02T19:09:23.862Z,83.60
2023-03-02T19:11:50.767Z,84.50
2023-03-02T19:14:18.317Z,84.00
2023-03-02T19:16:45.788Z,84.30
2023-03-02T19:19:13.159Z,84.90
2023-03-02T19:21:40.156Z,87.70
2023-03-02T19:24:07.694Z,85.90
2023-03-02T19:26:35.264Z,85.30
2023-03-02T19:29:02.256Z,87.40
2023-03-02T19:31:31.311Z,88.20
2023-03-02T19:33:59.111Z,90.10
2023-03-02T19:36:26.220Z,87.90
2023-03-02T19:38:53.157Z,88.40
2023-03-02T19:41:20.805Z,89.10
2023-03-02T19:43:48.133Z,89.10
2023-03-02T19:46:16.599Z,91.00
2023-03-02T19:48:44.255Z,91.10
2023-03-02T19:51:12.215Z,89.80
2023-03-02T19:53:40.378Z,89.80
2023-03-02T19:56:12.781Z,89.90
2023-03-02T19:58:49.902Z,89.90
2023-03-02T20:01:21.870Z,90.30
2023-03-02T20:03:53.167Z,90.50
2023-03-02T20:06:22.713Z,90.60
2023-03-02T20:08:49.782Z,90.80
2023-03-02T20:11:16.947Z,91.00
2023-03-02T20:13:44.257Z,91.10
2023-03-02T20:16:14.300Z,91.40
2023-03-02T20:18:41.538Z,91.40
2023-03-02T20:21:08.832Z,91.80
2023-03-02T20:23:35.778Z,91.80
2023-03-02T20:26:04.553Z,91.90
2023-03-02T20:28:33.005Z,92.00
2023-03-02T20:31:08.758Z,92.40
2023-03-02T20:33:42.519Z,92.30
2023-03-02T20:36:09.828Z,92.50
2023-03-02T20:38:50.152Z,92.70
2023-03-02T20:41:17.940Z,92.40
2023-03-02T20:43:45.169Z,92.60
2023-03-02T20:46:25.168Z,92.80
2023-03-02T20:48:54.176Z,92.90
2023-03-02T20:51:22.443Z,93.20
2023-03-02T20:53:49.651Z,93.40
2023-03-02T20:56:18.562Z,93.40
2023-03-02T20:58:47.045Z,93.60
2023-03-02T21:01:16.137Z,93.90
2023-03-02T21:03:44.021Z,94.30
2023-03-02T21:06:12.884Z,94.10
2023-03-02T21:08:40.981Z,93.90
2023-03-02T21:11:11.863Z,94.10
2023-03-02T21:13:39.297Z,94.20
2023-03-02T21:16:08.531Z,94.30
2023-03-02T21:18:35.715Z,94.60
2023-03-02T21:21:03.872Z,94.70
2023-03-02T21:23:30.816Z,94.80
2023-03-02T21:25:57.876Z,96.30
2023-03-02T21:28:27.369Z,95.30
2023-03-02T21:30:54.318Z,95.40
2023-03-02T21:33:21.476Z,95.50
2023-03-02T21:35:48.446Z,96.70
2023-03-02T21:38:15.429Z,96.90
2023-03-02T21:40:45.869Z,95.70
2023-03-02T21:43:14.612Z,95.70
2023-03-02T21:45:42.434Z,95.90
2023-03-02T21:48:09.609Z,96.10
2023-03-02T21:50:39.150Z,96.30
2023-03-02T21:53:07.218Z,96.20
2023-03-02T21:55:34.565Z,95.90
2023-03-02T21:58:01.952Z,95.90
2023-03-02T22:00:34.986Z,96.10
2023-03-02T22:03:03.121Z,96.10
2023-03-02T22:05:31.309Z,96.20
2023-03-02T22:07:58.406Z,96.40
2023-03-02T22:10:39.773Z,96.30
2023-03-02T22:13:22.722Z,96.80
2023-03-02T22:16:16.489Z,96.50
2023-03-02T22:18:45.668Z,96.70
2023-03-02T22:21:30.241Z,97.10
2023-03-02T22:24:06.032Z,97.20
2023-03-02T22:26:35.435Z,97.30
2023-03-02T22:29:41.753Z,97.40
2023-03-02T22:32:30.247Z,97.30
2023-03-02T22:35:00.386Z,97.30
2023-03-02T22:37:34.193Z,97.40
2023-03-02T22:40:16.713Z,97.60
2023-03-02T22:42:43.610Z,97.70
2023-03-02T22:45:17.445Z,97.90
2023-03-02T22:47:48.110Z,97.90
2023-03-02T22:50:27.709Z,97.90
2023-03-02T22:52:57.723Z,97.90
2023-03-02T22:55:43.100Z,97.80
2023-03-02T22:58:48.573Z,98.00
2023-03-02T23:01:27.230Z,98.10
2023-03-02T23:04:02.653Z,98.30
2023-03-02T23:06:33.790Z,98.00
2023-03-02T23:09:04.047Z,97.80
2023-03-02T23:11:38.153Z,97.40
2023-03-02T23:14:46.722Z,97.10
2023-03-02T23:17:34.716Z,97.90
2023-03-02T23:20:03.440Z,98.10
2023-03-02T23:22:31.689Z,98.30
2023-03-02T23:24:59.041Z,98.30
2023-03-02T23:27:26.003Z,98.50
2023-03-02T23:29:53.031Z,99.90
2023-03-02T23:32:20.478Z,98.80
2023-03-02T23:34:47.704Z,98.80
2023-03-02T23:37:14.684Z,99.00
2023-03-02T23:39:41.641Z,98.60
2023-03-02T23:42:09.126Z,99.90
2023-03-02T23:44:36.120Z,99.00
2023-03-02T23:47:03.458Z,99.10
2023-03-02T23:49:30.446Z,98.90
2023-03-02T23:51:57.399Z,99.20
2023-03-02T23:54:24.408Z,99.20
2023-03-02T23:56:51.344Z,99.20
